Tropical Cyclones
[Index]
Main Index Home Page Stock Weather Photos Extreme Storms Discussion Storm News and Storm Chasing Reports Tropical Cyclones / Hurricanes / Typhoons Weather Data and Links Wild Fires / Bushfires Weather Observation Techniques Weather Picture Catalogue Tornado Pictures and Reports Stock Video Footage and DVDs for sale
Season 1968-1969 Tropical Cyclone 196934 Track Map
Season 1968-1969 Summaries: [BoM-AU] [JTWC-AU] [JTWC-SIO] [JTWC-SPAC] [JTWC-SH]
<<- Previous TC | JTWC 1968-1969 Season | Next TC ->>

click for intensity scale information  Lat/long Grid: Show Hide

 Date Labels: Show Hide

Joint Typhoon Warning Centre Cyclone Data

Name: 196934
Number: 712 / 6934

11 Apr 1969 06:00 UTC to 16 Apr 1969 12:00 UTC

    date/time    lat    long     hPa   cat  kts
1969-04-11 06   10.5   165.1                  15          
1969-04-11 12   10.8   164.8                  10          
1969-04-11 18   11.3   164.4                  10          
1969-04-12 00   11.8   164.0                  05          
1969-04-12 06   12.3   163.6                  05          
1969-04-12 12   12.7   163.4                  05          
1969-04-12 18   13.1   163.1                  10          
1969-04-13 00   13.7   162.8                  15          
1969-04-13 06   14.3   162.4                  20          
1969-04-13 12   15.0   162.1                  25          
1969-04-13 18   15.8   161.6                  30          
1969-04-14 00   16.7   160.8                  30          
1969-04-14 06   17.8   160.0                  30          
1969-04-14 12   19.0   159.1                  30          
1969-04-14 18   20.6   158.3                  30          
1969-04-15 00   22.5   157.4                  30          
1969-04-15 06   24.3   156.7                  30          
1969-04-15 12   26.0   156.3                  30          
1969-04-15 18   27.6   156.6                  30          
1969-04-16 00   29.0   157.3                  20          
1969-04-16 06   30.2   158.2                  15          
1969-04-16 12   31.0   159.1                  15          
Winds are 1-min average.

Tropical cyclone tracks developed by Michael Bath using data from the Joint Typhoon Warning Centre Best Tracks and Google Maps.


[Australian Severe Weather index] [Copyright Notice] [Email Contacts] [Search This Site] [Privacy Policy]
Document: tropical_cyclone_196934.htm Updated: 18 September 2016